METAR AND TAF INFORMATION
METAR FOR SBCB
ADDS - METARS form results

(0019 UTC 25 March 2019)
Data provider http://aviationweather.gov/metar/data/
 
Forecast for: COR
Text: TAF COR SBCB 242100Z 2500/2524 04005KT 9999 FEW025 TN22/2508Z TX31/25 17Z
Forecast period: 0000 to 1400 UTC 25 March 2019
Forecast type: FROM: standard forecast or significant change
Winds: from the NE (40 degrees) at 6 MPH (5 knots; 2.6 m/s)
Visibility: 6 or more miles 10+ km)
Ceiling: at least 12,000 feet AGL
Clouds: few clouds at 2500 feet AGL
Weather: no significant weather forecast for this period
Text: BECMG 2514/2516 13010KT SCT025 RMK PGU
Forecast period: 1400 UTC 25 March 2019 to 0000 UTC 26 March 2019
Forecast type: BECOMING: Conditions expected to become as follows by 1600 UTC 25 March 2019
Winds: from the SE (130 degrees) at 12 MPH (10 knots; 5.1 m/s)
Visibility: 6 or more miles 10+ km)
Ceiling: at least 12,000 feet AGL
Clouds: scattered clouds at 2500 feet AGL
Weather: no significant weather forecast for this period

 AIRPORT MAP

 RUNWAY INFORMATION
Runway 10 Runway length 8366 ft Runway width 148 ft
Runway elevation 0 ft Runway displaced threshold 0 ft Runway heading 0
Runway 28 Runway length 8366 ft Runway width 148 ft
Runway elevation 0 ft Runway displaced threshold 0 ft Runway heading 0

 AIRPORT FREQUENCIES
Type AFIS Name RDO Frequency 132.15 MHZ

 AIRPORT NEAR NAVIGATION AIDS
Type NDB Name Cabo Frio Frequency 515 KHZ



Powered by Virtual Airlines Manager [v2.6.2]